Time;durP1;ratioP1;P1;durP2;ratioP2;P2;SDS_P1;SDS_P2;PMS_P1;PMS_P2;Temp;Humidity;BMP_temperature;BMP_pressure;BME280_temperature;BME280_humidity;BME280_pressure;Samples;Min_cycle;Max_cycle;Signal;HPM_P1;HPM_P2
2022/07/19 00:00:24;;;;;;;20.50;13.38;;;;;;;;;;4955455;29;20031;-58
2022/07/19 00:02:50;;;;;;;20.27;13.02;;;;;;;;;;4955292;29;20701;-56
2022/07/19 00:05:17;;;;;;;21.48;13.18;;;;;;;;;;4955491;29;20035;-57
2022/07/19 00:07:43;;;;;;;20.38;13.98;;;;;;;;;;4955424;29;20031;-58
2022/07/19 00:10:10;;;;;;;23.65;13.40;;;;;;;;;;4955929;28;20034;-57
2022/07/19 00:12:36;;;;;;;20.30;12.98;;;;;;;;;;4955773;29;20078;-59
2022/07/19 00:15:04;;;;;;;22.73;13.00;;;;;;;;;;4955948;29;20038;-58
2022/07/19 00:17:30;;;;;;;21.35;14.05;;;;;;;;;;4959961;28;20023;-59
2022/07/19 00:19:56;;;;;;;20.35;13.35;;;;;;;;;;4961172;28;20034;-57
2022/07/19 00:22:22;;;;;;;20.23;13.23;;;;;;;;;;4959394;28;20098;-59
2022/07/19 00:24:48;;;;;;;19.52;13.10;;;;;;;;;;4958466;29;20392;-59
2022/07/19 00:27:14;;;;;;;22.40;13.45;;;;;;;;;;4957283;29;20023;-59
2022/07/19 00:29:40;;;;;;;20.45;13.63;;;;;;;;;;4956495;28;20087;-55
2022/07/19 00:32:06;;;;;;;23.15;12.80;;;;;;;;;;4955389;29;20055;-56
2022/07/19 00:34:32;;;;;;;21.10;13.30;;;;;;;;;;4955179;28;20034;-54
2022/07/19 00:36:58;;;;;;;21.00;13.02;;;;;;;;;;4955014;28;20027;-55
2022/07/19 00:39:24;;;;;;;19.05;12.80;;;;;;;;;;4954939;28;20035;-55
2022/07/19 00:41:50;;;;;;;20.88;12.90;;;;;;;;;;4954760;28;20035;-56
2022/07/19 00:44:16;;;;;;;21.55;13.27;;;;;;;;;;4953979;28;20034;-57
2022/07/19 00:46:42;;;;;;;18.98;12.95;;;;;;;;;;4954771;28;20392;-58
2022/07/19 00:49:08;;;;;;;21.50;13.10;;;;;;;;;;4955729;28;20089;-55
2022/07/19 00:51:35;;;;;;;22.02;12.95;;;;;;;;;;4954641;28;20491;-59
2022/07/19 00:54:02;;;;;;;19.38;13.00;;;;;;;;;;4955012;28;20027;-57
2022/07/19 00:56:30;;;;;;;19.60;13.32;;;;;;;;;;4955012;29;20031;-57
2022/07/19 00:58:57;;;;;;;19.00;12.40;;;;;;;;;;4954632;28;20031;-59
2022/07/19 01:01:23;;;;;;;20.17;12.65;;;;;;;;;;4954436;29;20051;-59
2022/07/19 01:03:49;;;;;;;19.60;13.60;;;;;;;;;;4954706;29;20035;-57
2022/07/19 01:06:15;;;;;;;22.50;13.10;;;;;;;;;;4954696;28;20027;-55
2022/07/19 01:08:41;;;;;;;23.83;13.25;;;;;;;;;;4954551;28;20047;-55
2022/07/19 01:11:07;;;;;;;21.48;13.85;;;;;;;;;;4953335;28;20027;-57
2022/07/19 01:13:34;;;;;;;21.25;13.43;;;;;;;;;;4954665;29;20027;-59
2022/07/19 01:16:00;;;;;;;18.35;12.88;;;;;;;;;;4954819;29;20431;-59
2022/07/19 01:18:26;;;;;;;21.70;12.45;;;;;;;;;;4954114;28;20031;-56
2022/07/19 01:20:52;;;;;;;19.52;12.60;;;;;;;;;;4954688;29;20073;-59
2022/07/19 01:23:18;;;;;;;20.63;12.15;;;;;;;;;;4954464;29;20027;-57
2022/07/19 01:25:44;;;;;;;20.70;12.32;;;;;;;;;;4954560;29;20110;-56
2022/07/19 01:28:10;;;;;;;19.70;12.15;;;;;;;;;;4953731;28;20083;-59
2022/07/19 01:30:36;;;;;;;19.35;12.07;;;;;;;;;;4953233;29;20626;-58
2022/07/19 01:33:03;;;;;;;18.42;11.93;;;;;;;;;;4954583;28;20081;-58
2022/07/19 01:35:29;;;;;;;20.50;12.52;;;;;;;;;;4954811;29;20036;-58
2022/07/19 01:37:56;;;;;;;18.17;12.13;;;;;;;;;;4953877;29;20415;-57
2022/07/19 01:40:22;;;;;;;17.33;11.70;;;;;;;;;;4954384;29;20031;-57
2022/07/19 01:42:48;;;;;;;17.55;11.95;;;;;;;;;;4954531;28;20034;-57
2022/07/19 01:45:15;;;;;;;21.10;12.60;;;;;;;;;;4954770;29;20395;-56
2022/07/19 01:47:41;;;;;;;17.50;12.00;;;;;;;;;;4954298;29;20058;-57
2022/07/19 01:50:09;;;;;;;20.00;12.30;;;;;;;;;;4954670;28;20031;-55
2022/07/19 01:52:35;;;;;;;20.20;12.30;;;;;;;;;;4954577;29;20527;-57
2022/07/19 01:55:01;;;;;;;19.00;11.77;;;;;;;;;;4954897;28;20127;-57
2022/07/19 01:57:28;;;;;;;21.95;12.13;;;;;;;;;;4958056;29;20055;-56
2022/07/19 01:59:54;;;;;;;21.80;12.60;;;;;;;;;;4958237;28;20059;-58
2022/07/19 02:02:20;;;;;;;21.65;11.90;;;;;;;;;;4957617;28;20031;-58
2022/07/19 02:04:46;;;;;;;17.77;11.65;;;;;;;;;;4958115;29;20063;-55
2022/07/19 02:07:12;;;;;;;19.27;11.68;;;;;;;;;;4957617;28;20064;-57
2022/07/19 02:09:38;;;;;;;16.90;11.25;;;;;;;;;;4958164;28;20020;-57
2022/07/19 02:12:04;;;;;;;19.45;11.98;;;;;;;;;;4957694;29;20439;-57
2022/07/19 02:14:30;;;;;;;20.77;12.75;;;;;;;;;;4957507;29;20369;-56
2022/07/19 02:16:56;;;;;;;17.55;11.38;;;;;;;;;;4957259;29;20034;-58
2022/07/19 02:19:22;;;;;;;28.35;12.43;;;;;;;;;;4957510;28;20031;-54
2022/07/19 02:21:48;;;;;;;21.60;12.30;;;;;;;;;;4956274;28;20027;-58
2022/07/19 02:24:14;;;;;;;19.25;12.52;;;;;;;;;;4957445;28;20484;-56
2022/07/19 02:26:40;;;;;;;19.35;12.25;;;;;;;;;;4957512;29;20102;-56
2022/07/19 02:29:06;;;;;;;19.88;12.43;;;;;;;;;;4957118;28;20027;-54
2022/07/19 02:31:33;;;;;;;20.48;12.80;;;;;;;;;;4957459;29;20118;-55
2022/07/19 02:33:59;;;;;;;20.20;12.05;;;;;;;;;;4957606;29;20030;-56
2022/07/19 02:36:25;;;;;;;24.40;13.02;;;;;;;;;;4957158;29;20027;-58
2022/07/19 02:38:51;;;;;;;22.23;12.93;;;;;;;;;;4957346;28;20484;-56
2022/07/19 02:41:17;;;;;;;19.17;12.65;;;;;;;;;;4957158;28;20027;-57
2022/07/19 02:43:43;;;;;;;21.50;13.10;;;;;;;;;;4958204;28;20027;-56
2022/07/19 02:46:09;;;;;;;21.33;12.30;;;;;;;;;;4958044;29;20023;-58
2022/07/19 02:48:35;;;;;;;18.08;12.27;;;;;;;;;;4957070;28;20501;-58
2022/07/19 02:51:01;;;;;;;18.88;12.43;;;;;;;;;;4957440;29;20055;-58
2022/07/19 02:53:27;;;;;;;19.30;12.95;;;;;;;;;;4955998;29;20121;-58
2022/07/19 02:55:53;;;;;;;20.92;13.63;;;;;;;;;;4957066;28;20114;-58
2022/07/19 02:58:19;;;;;;;20.25;12.90;;;;;;;;;;4956133;28;20070;-58
2022/07/19 03:00:45;;;;;;;17.85;12.70;;;;;;;;;;4957093;29;20119;-57
2022/07/19 03:05:57;;;;;;;21.88;12.82;;;;;;;;;;4957015;28;20094;-56
2022/07/19 03:08:23;;;;;;;20.45;12.48;;;;;;;;;;4955237;28;20031;-58
2022/07/19 03:10:49;;;;;;;19.60;13.00;;;;;;;;;;4956762;29;20031;-57
2022/07/19 03:13:15;;;;;;;22.50;13.02;;;;;;;;;;4956784;29;20063;-57
2022/07/19 03:15:41;;;;;;;19.70;13.00;;;;;;;;;;4956616;28;20055;-57
2022/07/19 03:18:07;;;;;;;19.92;13.48;;;;;;;;;;4956564;28;20374;-55
2022/07/19 03:20:33;;;;;;;18.52;12.98;;;;;;;;;;4956413;29;20090;-56
2022/07/19 03:22:59;;;;;;;19.88;13.20;;;;;;;;;;4956479;28;20054;-55
2022/07/19 03:25:25;;;;;;;22.27;13.25;;;;;;;;;;4956696;29;20388;-57
2022/07/19 03:27:51;;;;;;;20.38;12.77;;;;;;;;;;4955876;29;20428;-57
2022/07/19 03:30:17;;;;;;;20.38;13.77;;;;;;;;;;4956017;28;20127;-55
2022/07/19 03:32:43;;;;;;;19.90;12.80;;;;;;;;;;4956358;29;20030;-56
2022/07/19 03:35:09;;;;;;;19.60;13.18;;;;;;;;;;4955834;29;20037;-58
2022/07/19 03:37:35;;;;;;;19.25;12.63;;;;;;;;;;4955897;29;20038;-56
2022/07/19 03:40:01;;;;;;;20.27;12.55;;;;;;;;;;4956526;28;20381;-57
2022/07/19 03:42:27;;;;;;;19.77;12.38;;;;;;;;;;4956165;29;20426;-57
2022/07/19 03:44:53;;;;;;;21.90;12.43;;;;;;;;;;4956126;28;20110;-58
2022/07/19 03:47:19;;;;;;;19.40;12.57;;;;;;;;;;4955345;29;20106;-57
2022/07/19 03:49:45;;;;;;;27.08;12.75;;;;;;;;;;4955661;28;20043;-59
2022/07/19 03:52:11;;;;;;;23.30;13.07;;;;;;;;;;4955858;28;20501;-56
2022/07/19 03:54:37;;;;;;;19.88;12.50;;;;;;;;;;4955832;29;20051;-58
2022/07/19 03:57:03;;;;;;;20.75;12.32;;;;;;;;;;4955337;28;20094;-59
2022/07/19 03:59:29;;;;;;;23.13;13.32;;;;;;;;;;4955292;28;20075;-59
2022/07/19 04:01:55;;;;;;;22.48;12.95;;;;;;;;;;4955621;29;20472;-55
2022/07/19 04:04:21;;;;;;;25.52;13.48;;;;;;;;;;4955414;29;20023;-57
2022/07/19 04:06:47;;;;;;;25.38;13.63;;;;;;;;;;4955578;29;20034;-55
2022/07/19 04:09:13;;;;;;;21.75;13.75;;;;;;;;;;4954388;28;20031;-59
2022/07/19 04:11:39;;;;;;;20.63;14.13;;;;;;;;;;4955398;28;20020;-56
2022/07/19 04:14:05;;;;;;;21.52;13.38;;;;;;;;;;4955303;29;20039;-55
2022/07/19 04:16:31;;;;;;;22.40;13.05;;;;;;;;;;4955458;28;20392;-58
2022/07/19 04:18:57;;;;;;;25.10;14.50;;;;;;;;;;4954632;28;20027;-56
2022/07/19 04:21:23;;;;;;;22.50;13.18;;;;;;;;;;4955111;29;20110;-56
2022/07/19 04:23:49;;;;;;;20.27;13.80;;;;;;;;;;4955087;29;20039;-57
2022/07/19 04:26:15;;;;;;;22.00;12.90;;;;;;;;;;4955213;29;20107;-56
2022/07/19 04:28:42;;;;;;;23.48;13.68;;;;;;;;;;4954607;28;20072;-55
2022/07/19 04:31:08;;;;;;;25.90;14.15;;;;;;;;;;4954728;29;20050;-57
2022/07/19 04:33:34;;;;;;;20.40;13.73;;;;;;;;;;4955111;29;20059;-58
2022/07/19 04:36:00;;;;;;;20.42;13.40;;;;;;;;;;4955445;29;20027;-57
2022/07/19 04:38:25;;;;;;;23.25;14.23;;;;;;;;;;4954823;28;20424;-58
2022/07/19 04:40:51;;;;;;;25.40;16.80;;;;;;;;;;4955539;28;20063;-58
2022/07/19 04:43:18;;;;;;;26.42;15.15;;;;;;;;;;4954746;29;20122;-56
2022/07/19 04:45:44;;;;;;;25.55;15.07;;;;;;;;;;4955483;29;20023;-57
2022/07/19 04:48:13;;;;;;;24.80;15.10;;;;;;;;;;4954663;28;20027;-56
2022/07/19 04:50:40;;;;;;;21.73;14.82;;;;;;;;;;4955141;29;20050;-57
2022/07/19 04:53:06;;;;;;;22.40;15.18;;;;;;;;;;4955357;28;20031;-57
2022/07/19 04:55:32;;;;;;;20.95;13.70;;;;;;;;;;4954856;28;20455;-56
2022/07/19 04:57:58;;;;;;;24.17;15.25;;;;;;;;;;4953065;28;20114;-59
2022/07/19 05:00:25;;;;;;;23.33;15.40;;;;;;;;;;4953277;29;20594;-56
2022/07/19 05:02:53;;;;;;;30.73;15.55;;;;;;;;;;4952344;28;20031;-58
2022/07/19 05:05:19;;;;;;;32.40;15.23;;;;;;;;;;4954417;28;20078;-56
2022/07/19 05:07:45;;;;;;;31.90;22.45;;;;;;;;;;4954058;29;20397;-58
2022/07/19 05:10:11;;;;;;;27.67;16.75;;;;;;;;;;4953041;28;20023;-56
2022/07/19 05:12:38;;;;;;;23.58;15.68;;;;;;;;;;4954062;28;20074;-54
2022/07/19 05:15:05;;;;;;;21.73;14.90;;;;;;;;;;4954063;28;20031;-56
2022/07/19 05:17:31;;;;;;;24.42;16.73;;;;;;;;;;4953512;28;20114;-56
2022/07/19 05:19:57;;;;;;;22.92;15.57;;;;;;;;;;4954003;29;20031;-55
2022/07/19 05:22:24;;;;;;;27.25;18.42;;;;;;;;;;4954292;28;20023;-55
2022/07/19 05:24:51;;;;;;;22.00;15.30;;;;;;;;;;4954276;28;20435;-56
2022/07/19 05:27:17;;;;;;;24.77;15.30;;;;;;;;;;4954141;28;20031;-57
2022/07/19 05:29:43;;;;;;;27.52;15.10;;;;;;;;;;4954107;28;20036;-59
2022/07/19 05:32:09;;;;;;;32.35;15.25;;;;;;;;;;4958258;28;20137;-58
2022/07/19 05:34:35;;;;;;;26.23;16.95;;;;;;;;;;4958443;28;20032;-57
2022/07/19 05:37:01;;;;;;;25.25;16.55;;;;;;;;;;4957766;28;20027;-54
2022/07/19 05:39:27;;;;;;;30.35;16.83;;;;;;;;;;4957795;29;20038;-59
2022/07/19 05:41:53;;;;;;;29.85;16.65;;;;;;;;;;4956703;29;20131;-59
2022/07/19 05:44:19;;;;;;;28.90;16.52;;;;;;;;;;4957632;28;20388;-56
2022/07/19 05:46:45;;;;;;;23.85;15.38;;;;;;;;;;4957874;29;20030;-58
2022/07/19 05:49:11;;;;;;;21.20;14.52;;;;;;;;;;4957140;29;20046;-59
2022/07/19 05:51:37;;;;;;;31.30;16.73;;;;;;;;;;4957487;29;20472;-58
2022/07/19 05:54:04;;;;;;;23.52;14.68;;;;;;;;;;4957654;29;20050;-58
2022/07/19 05:56:30;;;;;;;26.30;15.05;;;;;;;;;;4957496;29;20039;-58
2022/07/19 05:58:56;;;;;;;22.48;14.73;;;;;;;;;;4957352;28;20094;-59
2022/07/19 06:01:22;;;;;;;28.75;14.30;;;;;;;;;;4957320;29;20031;-57
2022/07/19 06:03:50;;;;;;;19.95;13.52;;;;;;;;;;4957595;28;20028;-59
2022/07/19 06:06:16;;;;;;;24.75;16.02;;;;;;;;;;4957570;28;20024;-56
2022/07/19 06:08:42;;;;;;;24.10;14.55;;;;;;;;;;4955553;28;20093;-58
2022/07/19 06:11:09;;;;;;;20.33;14.30;;;;;;;;;;4957198;28;20387;-57
2022/07/19 06:13:35;;;;;;;21.63;13.60;;;;;;;;;;4956556;28;20027;-58
2022/07/19 06:16:01;;;;;;;19.73;14.13;;;;;;;;;;4956795;28;20023;-57
2022/07/19 06:18:30;;;;;;;21.60;13.35;;;;;;;;;;4956907;28;20070;-57
2022/07/19 06:20:56;;;;;;;21.35;14.93;;;;;;;;;;4955865;28;20047;-58
2022/07/19 06:23:22;;;;;;;24.63;14.25;;;;;;;;;;4956915;28;20098;-59
2022/07/19 06:25:48;;;;;;;22.95;14.18;;;;;;;;;;4957217;28;20055;-58
2022/07/19 06:28:14;;;;;;;19.90;13.68;;;;;;;;;;4957324;28;20058;-59
2022/07/19 06:30:40;;;;;;;23.38;13.57;;;;;;;;;;4957431;28;20023;-59
2022/07/19 06:33:06;;;;;;;20.85;13.38;;;;;;;;;;4957210;28;20131;-59
2022/07/19 06:35:32;;;;;;;22.77;14.63;;;;;;;;;;4955658;28;20026;-57
2022/07/19 06:37:58;;;;;;;24.55;14.98;;;;;;;;;;4955793;28;20060;-59
2022/07/19 06:40:24;;;;;;;20.58;13.57;;;;;;;;;;4955377;29;20169;-59
2022/07/19 06:42:50;;;;;;;24.27;14.63;;;;;;;;;;4956253;29;20034;-59
2022/07/19 06:45:16;;;;;;;23.52;14.02;;;;;;;;;;4953976;29;20075;-56
2022/07/19 06:47:42;;;;;;;25.48;14.10;;;;;;;;;;4957024;28;20035;-54
2022/07/19 06:50:08;;;;;;;24.00;14.18;;;;;;;;;;4994582;23;20046;-58
2022/07/19 06:52:34;;;;;;;26.35;13.88;;;;;;;;;;4994405;28;20037;-58
2022/07/19 06:55:00;;;;;;;21.40;14.07;;;;;;;;;;5014283;28;20458;-56
2022/07/19 06:57:26;;;;;;;20.42;13.73;;;;;;;;;;5013986;28;20116;-58
2022/07/19 06:59:52;;;;;;;23.20;14.02;;;;;;;;;;5012883;28;20029;-59
2022/07/19 07:02:18;;;;;;;23.73;14.80;;;;;;;;;;5012984;28;20022;-58
2022/07/19 07:04:44;;;;;;;25.45;14.25;;;;;;;;;;4997373;28;20398;-58
2022/07/19 07:07:10;;;;;;;33.15;13.77;;;;;;;;;;4998405;28;20026;-58
2022/07/19 07:09:36;;;;;;;22.33;14.38;;;;;;;;;;4994393;28;20018;-58
2022/07/19 07:12:02;;;;;;;23.60;14.55;;;;;;;;;;4994768;28;20463;-59
2022/07/19 07:14:28;;;;;;;24.23;14.50;;;;;;;;;;4994941;28;20393;-57
2022/07/19 07:16:54;;;;;;;22.73;14.35;;;;;;;;;;4993860;28;20487;-58
2022/07/19 07:19:20;;;;;;;22.25;13.73;;;;;;;;;;4994838;28;20113;-57
2022/07/19 07:21:46;;;;;;;22.25;13.20;;;;;;;;;;4995120;28;20110;-57
2022/07/19 07:24:12;;;;;;;20.88;13.98;;;;;;;;;;4993838;28;20026;-56
2022/07/19 07:26:38;;;;;;;23.40;13.40;;;;;;;;;;4995362;28;20030;-58
2022/07/19 07:29:04;;;;;;;23.55;13.43;;;;;;;;;;4993946;28;20022;-58
2022/07/19 07:31:30;;;;;;;16.40;12.52;;;;;;;;;;4993967;28;20474;-58
2022/07/19 07:33:56;;;;;;;23.40;13.70;;;;;;;;;;4993500;28;20060;-57
2022/07/19 07:36:22;;;;;;;18.67;13.32;;;;;;;;;;4993424;28;20049;-56
2022/07/19 07:38:48;;;;;;;17.77;13.23;;;;;;;;;;4993687;28;20050;-59
2022/07/19 07:41:15;;;;;;;27.38;13.88;;;;;;;;;;4994091;28;20026;-59
2022/07/19 07:43:41;;;;;;;18.48;13.05;;;;;;;;;;4993743;28;20026;-59
2022/07/19 07:46:07;;;;;;;19.33;13.30;;;;;;;;;;4993545;28;20433;-59
2022/07/19 07:48:33;;;;;;;19.02;13.38;;;;;;;;;;4993383;28;20084;-59
2022/07/19 07:50:59;;;;;;;19.55;13.40;;;;;;;;;;4993461;28;20034;-59
2022/07/19 07:53:25;;;;;;;21.05;13.55;;;;;;;;;;4992825;28;20030;-58
2022/07/19 07:55:51;;;;;;;18.25;13.80;;;;;;;;;;4993534;28;20034;-59
2022/07/19 07:58:17;;;;;;;18.27;13.43;;;;;;;;;;4993371;28;20027;-59
2022/07/19 08:00:44;;;;;;;21.08;14.13;;;;;;;;;;4993530;28;20117;-58
2022/07/19 08:03:10;;;;;;;20.88;14.00;;;;;;;;;;4993298;28;20038;-58
2022/07/19 08:05:36;;;;;;;20.77;13.68;;;;;;;;;;4993981;28;20113;-59
2022/07/19 08:08:02;;;;;;;32.42;13.93;;;;;;;;;;4993042;28;20050;-52
2022/07/19 08:10:31;;;;;;;19.15;13.23;;;;;;;;;;4993547;28;20499;-59
2022/07/19 08:12:57;;;;;;;19.17;13.10;;;;;;;;;;4993032;28;20303;-56
2022/07/19 08:15:23;;;;;;;22.25;13.05;;;;;;;;;;4993352;28;20431;-58
2022/07/19 08:17:49;;;;;;;21.17;12.77;;;;;;;;;;4992681;28;20034;-59
2022/07/19 08:20:15;;;;;;;18.60;12.88;;;;;;;;;;4993403;28;20046;-58
2022/07/19 08:22:41;;;;;;;20.83;13.57;;;;;;;;;;4992773;28;20034;-60
2022/07/19 08:25:08;;;;;;;16.70;12.98;;;;;;;;;;4991818;28;20022;-56
2022/07/19 08:27:34;;;;;;;16.77;12.95;;;;;;;;;;4992804;28;20037;-57
2022/07/19 08:30:01;;;;;;;18.33;12.90;;;;;;;;;;4993530;28;20106;-57
2022/07/19 08:32:26;;;;;;;18.67;12.00;;;;;;;;;;4993433;28;20030;-58
2022/07/19 08:34:52;;;;;;;18.35;13.27;;;;;;;;;;4993813;28;20034;-54
2022/07/19 08:37:18;;;;;;;18.17;12.82;;;;;;;;;;4992867;28;20023;-58
2022/07/19 08:39:44;;;;;;;17.23;12.02;;;;;;;;;;4992724;28;20046;-58
2022/07/19 08:42:11;;;;;;;16.98;12.07;;;;;;;;;;4992765;28;20493;-56
2022/07/19 08:44:39;;;;;;;17.13;12.32;;;;;;;;;;4992328;28;20038;-55
2022/07/19 08:47:05;;;;;;;16.42;12.30;;;;;;;;;;4991662;28;20424;-59
2022/07/19 08:49:31;;;;;;;18.20;13.02;;;;;;;;;;4992190;28;20038;-58
2022/07/19 08:51:58;;;;;;;16.65;12.52;;;;;;;;;;4991139;28;20493;-58
2022/07/19 08:54:24;;;;;;;18.17;13.27;;;;;;;;;;4992459;28;20026;-59
2022/07/19 08:59:35;;;;;;;20.30;13.23;;;;;;;;;;4992669;28;20053;-56
2022/07/19 09:02:01;;;;;;;18.88;13.55;;;;;;;;;;4992485;28;20030;-60
2022/07/19 09:04:30;;;;;;;22.48;13.30;;;;;;;;;;4992059;28;20026;-60
2022/07/19 09:06:57;;;;;;;19.30;13.10;;;;;;;;;;4992626;28;20108;-58
2022/07/19 09:09:25;;;;;;;18.73;12.77;;;;;;;;;;4991754;28;20027;-58
2022/07/19 09:11:52;;;;;;;19.38;13.75;;;;;;;;;;4990972;28;20030;-60
2022/07/19 09:14:24;;;;;;;18.65;12.68;;;;;;;;;;4991913;28;20483;-57
2022/07/19 09:17:01;;;;;;;19.17;12.65;;;;;;;;;;4992590;28;20384;-58
2022/07/19 09:19:28;;;;;;;19.52;12.25;;;;;;;;;;4995482;28;20018;-59
2022/07/19 09:21:57;;;;;;;21.88;13.07;;;;;;;;;;5011469;28;20034;-57
2022/07/19 09:24:23;;;;;;;24.42;13.32;;;;;;;;;;5011694;28;20025;-59
2022/07/19 09:26:56;;;;;;;18.63;13.05;;;;;;;;;;5009619;28;20026;-67
2022/07/19 09:29:22;;;;;;;17.52;13.27;;;;;;;;;;4999253;28;20026;-64
2022/07/19 09:32:07;;;;;;;18.75;13.40;;;;;;;;;;5002664;28;20019;-64
2022/07/19 09:34:34;;;;;;;17.30;13.10;;;;;;;;;;4998990;28;20027;-65
2022/07/19 09:37:08;;;;;;;18.88;13.52;;;;;;;;;;4991902;28;20117;-62
2022/07/19 09:39:34;;;;;;;17.17;12.70;;;;;;;;;;4991891;28;20030;-64
2022/07/19 09:42:02;;;;;;;17.60;12.65;;;;;;;;;;4993115;28;20106;-64
2022/07/19 09:44:29;;;;;;;19.73;12.68;;;;;;;;;;4995315;28;20037;-63
2022/07/19 09:46:55;;;;;;;18.50;12.98;;;;;;;;;;4993228;28;20038;-64
2022/07/19 09:49:21;;;;;;;18.30;12.75;;;;;;;;;;4996255;28;20026;-61
2022/07/19 09:51:47;;;;;;;19.73;12.90;;;;;;;;;;5003042;28;20030;-64
2022/07/19 09:54:14;;;;;;;19.33;13.13;;;;;;;;;;5005850;28;20105;-61
2022/07/19 09:56:41;;;;;;;16.95;12.70;;;;;;;;;;5001284;28;20025;-64
2022/07/19 09:59:08;;;;;;;18.33;12.50;;;;;;;;;;5001312;28;20490;-66
2022/07/19 10:01:34;;;;;;;17.08;13.10;;;;;;;;;;5002849;28;20057;-65
2022/07/19 10:04:08;;;;;;;18.13;11.95;;;;;;;;;;5001643;28;20022;-68
2022/07/19 10:06:34;;;;;;;21.40;13.98;;;;;;;;;;5004233;28;20022;-67
2022/07/19 10:09:01;;;;;;;17.88;12.38;;;;;;;;;;4997458;28;20023;-65
2022/07/19 10:11:30;;;;;;;17.77;12.53;;;;;;;;;;4993348;28;20023;-68
2022/07/19 10:13:56;;;;;;;20.73;12.70;;;;;;;;;;4997280;28;20292;-67
2022/07/19 10:16:25;;;;;;;18.55;13.10;;;;;;;;;;4992916;28;20042;-67
2022/07/19 10:19:02;;;;;;;17.13;12.65;;;;;;;;;;4995152;28;20428;-67
2022/07/19 10:21:30;;;;;;;21.58;12.63;;;;;;;;;;4996340;28;20081;-66
2022/07/19 10:23:57;;;;;;;17.40;12.13;;;;;;;;;;4996955;28;20029;-67
2022/07/19 10:26:36;;;;;;;18.33;12.57;;;;;;;;;;5000554;28;20018;-67
2022/07/19 10:29:08;;;;;;;17.45;12.50;;;;;;;;;;5013197;28;20061;-66
2022/07/19 10:31:37;;;;;;;17.88;12.75;;;;;;;;;;5016232;28;20540;-67
2022/07/19 10:34:06;;;;;;;17.92;12.93;;;;;;;;;;5015869;28;20112;-67
2022/07/19 10:36:49;;;;;;;19.13;12.75;;;;;;;;;;5014846;28;20032;-66
2022/07/19 10:39:21;;;;;;;17.25;12.57;;;;;;;;;;5015600;28;20022;-66
2022/07/19 10:42:05;;;;;;;17.50;12.15;;;;;;;;;;5015315;28;20040;-65
2022/07/19 10:44:32;;;;;;;17.02;12.52;;;;;;;;;;5014153;28;20399;-67
2022/07/19 10:46:58;;;;;;;18.42;13.30;;;;;;;;;;5014816;28;20089;-66
2022/07/19 10:49:44;;;;;;;19.30;12.82;;;;;;;;;;5008212;28;20521;-67
2022/07/19 10:52:28;;;;;;;17.48;12.68;;;;;;;;;;5014808;28;20022;-67
2022/07/19 10:55:13;;;;;;;19.70;12.77;;;;;;;;;;5014818;28;20030;-67
2022/07/19 10:57:39;;;;;;;15.95;12.20;;;;;;;;;;5014638;28;20036;-66
2022/07/19 11:00:20;;;;;;;20.15;12.73;;;;;;;;;;5015396;28;20021;-67
2022/07/19 11:02:47;;;;;;;17.73;12.60;;;;;;;;;;5013957;28;20536;-66
2022/07/19 11:05:26;;;;;;;17.63;13.10;;;;;;;;;;4995673;28;20026;-66
2022/07/19 11:07:52;;;;;;;16.80;12.73;;;;;;;;;;4995528;28;20014;-67
2022/07/19 11:10:26;;;;;;;18.38;12.77;;;;;;;;;;4995265;28;20023;-66
2022/07/19 11:12:52;;;;;;;17.10;12.98;;;;;;;;;;4995627;28;20018;-66
2022/07/19 11:15:18;;;;;;;20.27;13.13;;;;;;;;;;5007006;28;20037;-66
2022/07/19 11:18:11;;;;;;;17.95;12.70;;;;;;;;;;5013205;28;20121;-66
2022/07/19 11:20:37;;;;;;;18.05;12.70;;;;;;;;;;5000637;28;20038;-67
2022/07/19 11:23:04;;;;;;;16.30;12.32;;;;;;;;;;5003913;28;20528;-66
2022/07/19 11:25:31;;;;;;;22.17;13.07;;;;;;;;;;5011113;28;20027;-66
2022/07/19 11:27:58;;;;;;;22.98;12.80;;;;;;;;;;5003473;28;20278;-67
2022/07/19 11:30:25;;;;;;;17.40;12.23;;;;;;;;;;5003745;28;20085;-63
2022/07/19 11:32:53;;;;;;;16.60;12.13;;;;;;;;;;5010024;28;20026;-64
2022/07/19 11:35:18;;;;;;;19.55;13.20;;;;;;;;;;5008627;28;20030;-64
2022/07/19 11:37:45;;;;;;;21.27;12.73;;;;;;;;;;5005818;28;20137;-64
2022/07/19 11:40:12;;;;;;;18.15;13.40;;;;;;;;;;5013412;28;20050;-65
2022/07/19 11:42:39;;;;;;;18.73;12.73;;;;;;;;;;5013511;28;20505;-65
2022/07/19 11:45:09;;;;;;;18.58;13.15;;;;;;;;;;4993673;28;20270;-65
2022/07/19 11:47:36;;;;;;;17.02;12.80;;;;;;;;;;5001520;28;20030;-65
2022/07/19 11:50:06;;;;;;;16.52;12.48;;;;;;;;;;5003016;28;20080;-66
2022/07/19 11:52:50;;;;;;;16.10;12.30;;;;;;;;;;5012670;28;20022;-65
2022/07/19 11:55:17;;;;;;;17.73;12.35;;;;;;;;;;5013397;28;20022;-64
2022/07/19 11:57:43;;;;;;;17.88;12.30;;;;;;;;;;5013436;28;20109;-63
2022/07/19 12:00:10;;;;;;;17.25;12.30;;;;;;;;;;5013005;28;20149;-63
2022/07/19 12:02:58;;;;;;;18.93;12.17;;;;;;;;;;5013186;28;20390;-64
2022/07/19 12:05:25;;;;;;;18.10;11.90;;;;;;;;;;4973565;28;20328;-65
2022/07/19 12:07:52;;;;;;;19.10;12.50;;;;;;;;;;4973878;28;20463;-65
2022/07/19 12:10:38;;;;;;;16.75;12.50;;;;;;;;;;4974132;28;20035;-65
2022/07/19 12:13:05;;;;;;;16.10;12.18;;;;;;;;;;4973878;28;20061;-66
2022/07/19 12:15:43;;;;;;;17.60;12.35;;;;;;;;;;4985466;28;20046;-63
2022/07/19 12:18:09;;;;;;;17.83;12.05;;;;;;;;;;4993024;28;20521;-63
2022/07/19 12:20:35;;;;;;;19.58;12.38;;;;;;;;;;4993310;28;20634;-64
2022/07/19 12:23:30;;;;;;;17.00;12.82;;;;;;;;;;4986028;28;20031;-65
2022/07/19 12:26:03;;;;;;;18.50;12.32;;;;;;;;;;4980306;28;20062;-65
2022/07/19 12:28:30;;;;;;;18.38;12.68;;;;;;;;;;4988298;28;20044;-65
2022/07/19 12:31:03;;;;;;;17.33;13.05;;;;;;;;;;5011480;28;20022;-65
2022/07/19 12:33:29;;;;;;;16.98;12.82;;;;;;;;;;5012729;28;20026;-65
2022/07/19 12:35:55;;;;;;;17.60;12.90;;;;;;;;;;5012751;28;20030;-66
2022/07/19 12:38:27;;;;;;;18.77;13.25;;;;;;;;;;5012208;28;20374;-65
2022/07/19 12:41:04;;;;;;;19.52;12.95;;;;;;;;;;5011599;28;20100;-64
2022/07/19 12:43:30;;;;;;;18.17;13.27;;;;;;;;;;4998235;28;20680;-65
2022/07/19 12:46:01;;;;;;;17.73;12.63;;;;;;;;;;4998965;28;20019;-64
2022/07/19 12:48:27;;;;;;;17.33;13.30;;;;;;;;;;4647353;28;9999938;-64
2022/07/19 12:50:53;;;;;;;18.37;13.53;;;;;;;;;;4998077;28;20478;-64
2022/07/19 12:53:20;;;;;;;16.38;13.10;;;;;;;;;;4997140;28;20034;-65
2022/07/19 12:55:46;;;;;;;19.98;13.80;;;;;;;;;;4998485;28;20045;-64
2022/07/19 12:58:14;;;;;;;17.92;13.23;;;;;;;;;;4998001;28;20054;-65
2022/07/19 13:00:41;;;;;;;;;;;;;;;;;;4996531;28;20031;-65
2022/07/19 13:03:08;;;;;;;18.60;14.10;;;;;;;;;;4994893;28;20016;-64
2022/07/19 13:05:35;;;;;;;18.02;13.77;;;;;;;;;;4996494;28;20053;-65
2022/07/19 13:08:01;;;;;;;17.70;13.57;;;;;;;;;;4996600;28;20019;-63
2022/07/19 13:10:28;;;;;;;16.10;12.97;;;;;;;;;;4997743;28;20318;-64
2022/07/19 13:12:54;;;;;;;16.88;13.40;;;;;;;;;;4999321;28;20036;-64
2022/07/19 13:15:20;;;;;;;17.52;12.98;;;;;;;;;;4998513;28;20101;-65
2022/07/19 13:17:46;;;;;;;18.80;13.27;;;;;;;;;;4998058;28;20025;-65
2022/07/19 13:20:13;;;;;;;22.83;14.02;;;;;;;;;;4990057;28;20148;-64
2022/07/19 13:22:40;;;;;;;18.70;13.90;;;;;;;;;;4989155;28;20109;-65
2022/07/19 13:25:07;;;;;;;18.05;12.90;;;;;;;;;;4988016;28;20066;-67
2022/07/19 13:27:33;;;;;;;18.55;13.32;;;;;;;;;;4989353;28;20662;-66
2022/07/19 13:29:59;;;;;;;20.45;13.48;;;;;;;;;;4989468;28;20084;-66
2022/07/19 13:32:25;;;;;;;20.20;14.50;;;;;;;;;;4988022;28;20022;-65
2022/07/19 13:34:51;;;;;;;16.98;13.48;;;;;;;;;;4988215;28;20471;-65
2022/07/19 13:37:18;;;;;;;16.83;13.25;;;;;;;;;;4989243;28;20034;-66
2022/07/19 13:39:44;;;;;;;19.58;14.48;;;;;;;;;;4989261;28;20041;-66
2022/07/19 13:42:10;;;;;;;18.42;14.40;;;;;;;;;;4995857;28;20042;-65
2022/07/19 13:44:36;;;;;;;18.23;14.27;;;;;;;;;;5003399;28;20095;-65
2022/07/19 13:47:02;;;;;;;17.55;13.95;;;;;;;;;;4993675;28;20685;-65
2022/07/19 13:49:28;;;;;;;16.63;14.10;;;;;;;;;;4988639;28;20039;-65
2022/07/19 13:51:54;;;;;;;17.10;13.67;;;;;;;;;;4999341;28;20446;-63
2022/07/19 13:54:20;;;;;;;17.33;13.30;;;;;;;;;;5000443;28;20017;-64
2022/07/19 13:56:46;;;;;;;19.92;14.18;;;;;;;;;;4990221;28;20022;-61
2022/07/19 13:59:12;;;;;;;17.15;14.13;;;;;;;;;;4992927;28;20014;-60
2022/07/19 14:01:38;;;;;;;17.23;13.77;;;;;;;;;;4996847;28;20505;-62
2022/07/19 14:04:05;;;;;;;18.37;14.80;;;;;;;;;;5004111;28;20025;-61
2022/07/19 14:06:31;;;;;;;18.15;14.65;;;;;;;;;;5012347;28;20501;-60
2022/07/19 14:08:57;;;;;;;17.83;13.40;;;;;;;;;;5006996;28;20461;-60
2022/07/19 14:11:23;;;;;;;17.70;13.10;;;;;;;;;;5006556;28;20305;-61
2022/07/19 14:13:49;;;;;;;18.47;13.70;;;;;;;;;;5008766;28;20054;-62
2022/07/19 14:16:15;;;;;;;17.50;13.70;;;;;;;;;;5003722;28;20074;-61
2022/07/19 14:18:41;;;;;;;19.92;14.02;;;;;;;;;;5001374;28;20050;-60
2022/07/19 14:21:07;;;;;;;17.30;14.30;;;;;;;;;;5001545;28;20605;-62